Time;durP1;ratioP1;P1;durP2;ratioP2;P2;SDS_P1;SDS_P2;PMS_P1;PMS_P2;Temp;Humidity;BMP_temperature;BMP_pressure;BME280_temperature;BME280_humidity;BME280_pressure;Samples;Min_cycle;Max_cycle;Signal;HPM_P1;HPM_P2
2021/06/03 00:01:04;;;;;;;3.58;0.65;;;;;;;;;;5041674;28;20114;-56
2021/06/03 00:03:31;;;;;;;3.03;0.75;;;;;;;;;;5041086;28;20628;-56
2021/06/03 00:06:00;;;;;;;4.35;1.00;;;;;;;;;;5040363;28;20135;-58
2021/06/03 00:08:28;;;;;;;6.03;1.00;;;;;;;;;;5039863;28;20048;-57
2021/06/03 00:10:56;;;;;;;3.97;0.93;;;;;;;;;;5040806;28;20041;-56
2021/06/03 00:13:23;;;;;;;5.70;0.93;;;;;;;;;;5041559;28;20505;-60
2021/06/03 00:15:49;;;;;;;14.80;1.85;;;;;;;;;;5040466;28;20057;-57
2021/06/03 00:18:15;;;;;;;5.93;1.10;;;;;;;;;;5039362;28;20041;-58
2021/06/03 00:20:41;;;;;;;4.90;0.82;;;;;;;;;;5039070;28;20493;-59
2021/06/03 00:23:07;;;;;;;4.53;1.08;;;;;;;;;;5040859;28;20040;-59
2021/06/03 00:25:33;;;;;;;3.75;0.98;;;;;;;;;;5039040;28;20143;-57
2021/06/03 00:27:59;;;;;;;5.68;0.88;;;;;;;;;;5041428;28;20561;-57
2021/06/03 00:30:25;;;;;;;4.70;0.93;;;;;;;;;;5038379;28;20039;-57
2021/06/03 00:32:51;;;;;;;16.38;1.50;;;;;;;;;;5039504;28;20142;-56
2021/06/03 00:35:17;;;;;;;5.88;1.00;;;;;;;;;;5043196;28;20040;-57
2021/06/03 00:37:43;;;;;;;4.38;1.25;;;;;;;;;;5042374;28;20056;-58
2021/06/03 00:40:11;;;;;;;5.13;1.00;;;;;;;;;;5041180;28;20044;-58
2021/06/03 00:42:37;;;;;;;5.35;1.02;;;;;;;;;;5042816;28;20406;-58
2021/06/03 00:45:04;;;;;;;4.28;0.80;;;;;;;;;;5042529;28;20649;-58
2021/06/03 00:47:30;;;;;;;3.90;0.90;;;;;;;;;;5040384;28;20493;-58
2021/06/03 00:49:56;;;;;;;3.17;0.75;;;;;;;;;;5045406;28;20370;-57
2021/06/03 00:52:22;;;;;;;7.43;0.90;;;;;;;;;;5047294;28;20222;-58
2021/06/03 00:54:48;;;;;;;3.00;0.85;;;;;;;;;;5044467;28;20501;-57
2021/06/03 00:57:14;;;;;;;4.35;0.90;;;;;;;;;;5045812;28;20055;-57
2021/06/03 00:59:40;;;;;;;3.83;0.80;;;;;;;;;;5043306;28;20033;-58
2021/06/03 01:02:06;;;;;;;3.10;0.80;;;;;;;;;;5045618;28;20041;-57
2021/06/03 01:04:32;;;;;;;6.70;0.82;;;;;;;;;;5044549;28;20111;-58
2021/06/03 01:06:58;;;;;;;4.25;0.88;;;;;;;;;;5043643;28;20085;-59
2021/06/03 01:09:23;;;;;;;4.05;0.93;;;;;;;;;;5043163;28;20048;-58
2021/06/03 01:11:55;;;;;;;4.55;0.95;;;;;;;;;;5042149;28;20047;-56
2021/06/03 01:14:30;;;;;;;7.68;0.80;;;;;;;;;;5044888;28;20041;-59
2021/06/03 01:16:57;;;;;;;4.50;1.10;;;;;;;;;;5043651;28;21080;-57
2021/06/03 01:19:27;;;;;;;5.50;0.90;;;;;;;;;;5043893;28;20060;-59
2021/06/03 01:21:53;;;;;;;5.05;0.90;;;;;;;;;;5044453;28;20044;-59
2021/06/03 01:24:30;;;;;;;4.70;1.00;;;;;;;;;;5042735;28;20025;-57
2021/06/03 01:26:58;;;;;;;6.45;0.95;;;;;;;;;;5043017;28;20065;-58
2021/06/03 01:29:25;;;;;;;4.55;0.82;;;;;;;;;;5042514;28;20037;-56
2021/06/03 01:31:51;;;;;;;6.13;0.80;;;;;;;;;;5042444;28;20033;-58
2021/06/03 01:34:18;;;;;;;8.90;1.00;;;;;;;;;;5042670;28;20580;-58
2021/06/03 01:36:44;;;;;;;4.97;0.80;;;;;;;;;;5040784;28;20578;-59
2021/06/03 01:39:10;;;;;;;4.55;1.10;;;;;;;;;;5042431;28;20041;-59
2021/06/03 01:41:36;;;;;;;2.63;0.82;;;;;;;;;;5041846;28;20072;-57
2021/06/03 01:44:04;;;;;;;2.72;0.80;;;;;;;;;;5044223;28;20048;-57
2021/06/03 01:46:31;;;;;;;6.47;1.20;;;;;;;;;;5040882;28;20400;-56
2021/06/03 01:48:57;;;;;;;7.78;1.10;;;;;;;;;;5041486;28;20041;-55
2021/06/03 01:51:24;;;;;;;4.05;0.90;;;;;;;;;;5043363;28;20068;-55
2021/06/03 01:53:50;;;;;;;12.73;1.30;;;;;;;;;;5041710;28;20040;-54
2021/06/03 01:56:18;;;;;;;4.38;0.90;;;;;;;;;;5044076;28;20983;-55
2021/06/03 01:58:44;;;;;;;5.70;0.93;;;;;;;;;;5040826;28;20702;-54
2021/06/03 02:01:10;;;;;;;4.43;0.90;;;;;;;;;;5042028;28;20044;-56
2021/06/03 02:03:37;;;;;;;3.55;0.90;;;;;;;;;;5041095;28;20051;-55
2021/06/03 02:06:03;;;;;;;5.35;1.23;;;;;;;;;;5041649;28;20037;-56
2021/06/03 02:08:29;;;;;;;60.22;3.25;;;;;;;;;;5040334;28;20140;-55
2021/06/03 02:10:55;;;;;;;5.10;1.13;;;;;;;;;;5041229;28;20040;-56
2021/06/03 02:13:29;;;;;;;5.30;0.90;;;;;;;;;;5040463;28;20032;-56
2021/06/03 02:16:18;;;;;;;14.57;1.75;;;;;;;;;;5040688;28;20073;-55
2021/06/03 02:18:47;;;;;;;8.68;1.00;;;;;;;;;;5031578;28;20043;-55
2021/06/03 02:21:14;;;;;;;5.40;1.08;;;;;;;;;;5035317;28;20060;-54
2021/06/03 02:23:39;;;;;;;10.10;1.20;;;;;;;;;;5040045;28;20049;-56
2021/06/03 02:26:06;;;;;;;6.85;1.10;;;;;;;;;;5042290;28;20513;-56
2021/06/03 02:28:32;;;;;;;11.52;1.33;;;;;;;;;;5041377;28;20037;-56
2021/06/03 02:30:58;;;;;;;8.85;1.48;;;;;;;;;;5043218;28;20084;-55
2021/06/03 02:33:24;;;;;;;4.32;0.82;;;;;;;;;;5041996;28;20082;-55
2021/06/03 02:35:50;;;;;;;4.20;0.88;;;;;;;;;;5042072;28;20559;-56
2021/06/03 02:38:26;;;;;;;7.38;0.90;;;;;;;;;;5055441;28;20044;-57
2021/06/03 02:40:53;;;;;;;11.45;1.15;;;;;;;;;;5042105;28;20106;-57
2021/06/03 02:43:19;;;;;;;4.45;0.93;;;;;;;;;;5042444;28;20037;-56
2021/06/03 02:45:46;;;;;;;6.82;0.75;;;;;;;;;;5041315;28;20083;-56
2021/06/03 02:48:12;;;;;;;7.50;1.15;;;;;;;;;;5042256;28;20589;-55
2021/06/03 02:50:38;;;;;;;7.72;1.65;;;;;;;;;;5037994;28;20165;-55
2021/06/03 02:53:04;;;;;;;10.10;1.40;;;;;;;;;;5040859;28;20091;-53
2021/06/03 02:55:30;;;;;;;8.82;1.30;;;;;;;;;;5041019;28;20045;-58
2021/06/03 02:57:55;;;;;;;11.52;1.67;;;;;;;;;;5039878;28;20040;-58
2021/06/03 03:00:26;;;;;;;5.25;0.95;;;;;;;;;;5039517;28;20815;-57
2021/06/03 03:02:52;;;;;;;5.50;1.00;;;;;;;;;;5043451;28;20033;-58
2021/06/03 03:05:18;;;;;;;6.80;1.00;;;;;;;;;;5043320;28;20400;-58
2021/06/03 03:07:44;;;;;;;8.75;1.15;;;;;;;;;;5042573;28;20041;-57
2021/06/03 03:10:12;;;;;;;9.63;1.35;;;;;;;;;;5039551;28;20358;-59
2021/06/03 03:12:39;;;;;;;15.32;1.38;;;;;;;;;;5040236;28;20086;-58
2021/06/03 03:15:06;;;;;;;6.68;1.27;;;;;;;;;;5040156;28;20036;-59
2021/06/03 03:17:31;;;;;;;5.28;1.20;;;;;;;;;;5040188;28;20103;-58
2021/06/03 03:19:57;;;;;;;7.47;1.80;;;;;;;;;;5040230;28;20044;-59
2021/06/03 03:22:23;;;;;;;6.53;1.25;;;;;;;;;;5041588;28;20502;-58
2021/06/03 03:24:49;;;;;;;10.07;1.35;;;;;;;;;;5041532;28;20029;-59
2021/06/03 03:27:15;;;;;;;7.25;1.38;;;;;;;;;;5041028;28;20114;-58
2021/06/03 03:29:41;;;;;;;6.68;1.13;;;;;;;;;;5039576;28;20066;-58
2021/06/03 03:32:07;;;;;;;12.63;1.20;;;;;;;;;;5042823;28;20044;-59
2021/06/03 03:34:33;;;;;;;14.95;1.65;;;;;;;;;;5042081;28;20045;-60
2021/06/03 03:36:58;;;;;;;5.82;1.30;;;;;;;;;;5047113;28;20052;-59
2021/06/03 03:39:24;;;;;;;5.60;1.00;;;;;;;;;;5040081;28;20477;-59
2021/06/03 03:41:50;;;;;;;8.00;1.20;;;;;;;;;;5040640;28;20165;-57
2021/06/03 03:44:16;;;;;;;6.13;1.17;;;;;;;;;;5042029;28;20715;-57
2021/06/03 03:46:42;;;;;;;9.93;1.50;;;;;;;;;;5040419;28;20065;-54
2021/06/03 03:49:07;;;;;;;7.22;1.58;;;;;;;;;;5041486;28;20164;-56
2021/06/03 03:51:33;;;;;;;44.92;2.60;;;;;;;;;;5039316;28;20914;-57
2021/06/03 03:53:59;;;;;;;17.08;2.10;;;;;;;;;;5040186;28;20079;-57
2021/06/03 03:56:25;;;;;;;9.50;1.30;;;;;;;;;;5040225;28;20041;-52
2021/06/03 03:58:50;;;;;;;7.05;1.00;;;;;;;;;;5042437;28;20041;-57
2021/06/03 04:01:17;;;;;;;5.25;1.13;;;;;;;;;;5041861;28;20068;-56
2021/06/03 04:03:43;;;;;;;7.35;1.20;;;;;;;;;;5040661;28;20048;-56
2021/06/03 04:06:09;;;;;;;4.70;1.10;;;;;;;;;;5043851;28;20044;-57
2021/06/03 04:08:34;;;;;;;6.05;1.33;;;;;;;;;;5043821;28;20036;-56
2021/06/03 04:11:00;;;;;;;5.35;1.10;;;;;;;;;;5044604;28;20036;-57
2021/06/03 04:13:26;;;;;;;6.90;1.30;;;;;;;;;;5045409;28;20033;-56
2021/06/03 04:15:54;;;;;;;10.68;1.30;;;;;;;;;;5045265;28;20088;-57
2021/06/03 04:18:20;;;;;;;5.22;1.10;;;;;;;;;;5044593;28;20029;-56
2021/06/03 04:20:46;;;;;;;8.38;1.30;;;;;;;;;;5043501;28;20036;-57
2021/06/03 04:23:12;;;;;;;6.72;1.20;;;;;;;;;;5043010;28;21507;-57
2021/06/03 04:25:37;;;;;;;6.90;1.42;;;;;;;;;;5042418;28;20052;-56
2021/06/03 04:28:05;;;;;;;17.42;1.67;;;;;;;;;;5044517;28;20100;-56
2021/06/03 04:30:31;;;;;;;5.63;1.00;;;;;;;;;;5042810;28;20149;-56
2021/06/03 04:32:57;;;;;;;7.07;1.15;;;;;;;;;;5042624;28;20166;-57
2021/06/03 04:35:23;;;;;;;12.52;1.20;;;;;;;;;;5043500;28;20170;-57
2021/06/03 04:37:50;;;;;;;6.65;1.00;;;;;;;;;;5044910;28;20132;-57
2021/06/03 04:40:17;;;;;;;6.78;1.20;;;;;;;;;;5043527;28;20152;-57
2021/06/03 04:42:43;;;;;;;4.93;0.90;;;;;;;;;;5044227;28;20044;-56
2021/06/03 04:45:12;;;;;;;7.32;0.88;;;;;;;;;;5043832;28;20106;-55
2021/06/03 04:47:38;;;;;;;3.95;1.10;;;;;;;;;;5043051;28;20531;-56
2021/06/03 04:50:04;;;;;;;4.88;1.00;;;;;;;;;;5043120;28;20053;-56
2021/06/03 04:52:31;;;;;;;5.40;1.05;;;;;;;;;;5034639;28;20509;-55
2021/06/03 04:55:02;;;;;;;5.40;1.00;;;;;;;;;;5047822;28;20128;-57
2021/06/03 04:57:29;;;;;;;5.70;1.00;;;;;;;;;;5034731;28;20046;-57
2021/06/03 04:59:55;;;;;;;4.38;1.00;;;;;;;;;;5056540;28;20369;-57
2021/06/03 05:02:21;;;;;;;7.63;1.23;;;;;;;;;;5043096;28;20128;-56
2021/06/03 05:04:50;;;;;;;5.90;1.10;;;;;;;;;;5044753;28;20052;-56
2021/06/03 05:07:16;;;;;;;5.15;1.10;;;;;;;;;;5044197;28;20044;-57
2021/06/03 05:09:42;;;;;;;5.68;1.60;;;;;;;;;;5044321;28;20055;-54
2021/06/03 05:12:08;;;;;;;7.90;1.05;;;;;;;;;;5045086;28;20041;-57
2021/06/03 05:14:35;;;;;;;5.28;1.10;;;;;;;;;;5041339;28;20029;-56
2021/06/03 05:17:00;;;;;;;4.40;1.08;;;;;;;;;;5042376;28;20041;-57
2021/06/03 05:19:26;;;;;;;4.10;1.10;;;;;;;;;;5041586;28;20834;-57
2021/06/03 05:21:52;;;;;;;4.07;1.25;;;;;;;;;;5042446;28;20478;-57
2021/06/03 05:24:18;;;;;;;4.45;1.23;;;;;;;;;;5043371;28;20037;-57
2021/06/03 05:26:44;;;;;;;8.82;1.52;;;;;;;;;;5043648;28;20033;-56
2021/06/03 05:29:14;;;;;;;7.47;1.70;;;;;;;;;;5042443;28;20048;-56
2021/06/03 05:31:43;;;;;;;8.00;2.22;;;;;;;;;;5043565;28;20498;-56
2021/06/03 05:34:09;;;;;;;9.32;2.55;;;;;;;;;;5043428;28;20146;-56
2021/06/03 05:36:35;;;;;;;5.55;2.10;;;;;;;;;;5043107;28;20041;-56
2021/06/03 05:39:01;;;;;;;8.40;1.83;;;;;;;;;;5042018;28;20047;-56
2021/06/03 05:41:27;;;;;;;5.47;1.50;;;;;;;;;;5041397;28;20136;-56
2021/06/03 05:43:53;;;;;;;7.03;1.80;;;;;;;;;;5042769;28;20068;-56
2021/06/03 05:46:19;;;;;;;5.38;1.80;;;;;;;;;;5041278;28;20041;-56
2021/06/03 05:48:45;;;;;;;6.90;2.10;;;;;;;;;;5040888;28;20044;-56
2021/06/03 05:51:10;;;;;;;5.13;1.50;;;;;;;;;;5043193;28;20047;-56
2021/06/03 05:53:36;;;;;;;7.80;1.60;;;;;;;;;;5042286;28;20175;-56
2021/06/03 05:56:02;;;;;;;8.63;2.70;;;;;;;;;;5042542;28;20051;-55
2021/06/03 05:58:28;;;;;;;10.68;1.63;;;;;;;;;;5043794;28;20517;-55
2021/06/03 06:00:54;;;;;;;7.78;1.50;;;;;;;;;;5041478;28;20513;-56
2021/06/03 06:03:27;;;;;;;5.38;1.30;;;;;;;;;;5041661;28;20075;-56
2021/06/03 06:06:35;;;;;;;5.95;1.30;;;;;;;;;;5043102;28;20045;-56
2021/06/03 06:08:42;;;;;;;5.65;1.70;;;;;;;;;;5038274;28;20044;-56
2021/06/03 06:11:09;;;;;;;7.03;1.48;;;;;;;;;;5041556;28;20041;-56
2021/06/03 06:13:35;;;;;;;7.13;1.60;;;;;;;;;;5057117;28;20120;-56
2021/06/03 06:16:01;;;;;;;7.10;2.05;;;;;;;;;;5043072;28;20049;-55
2021/06/03 06:18:27;;;;;;;7.70;1.73;;;;;;;;;;5039679;28;20037;-57
2021/06/03 06:20:53;;;;;;;8.45;1.70;;;;;;;;;;5038586;28;20059;-56
2021/06/03 06:23:20;;;;;;;10.18;1.77;;;;;;;;;;5051076;28;20122;-56
2021/06/03 06:25:46;;;;;;;7.90;1.70;;;;;;;;;;5040904;28;20052;-55
2021/06/03 06:28:13;;;;;;;7.32;1.70;;;;;;;;;;5042518;28;20638;-57
2021/06/03 06:30:39;;;;;;;7.68;1.73;;;;;;;;;;5039593;28;20582;-57
2021/06/03 06:33:05;;;;;;;6.00;1.60;;;;;;;;;;5041853;28;20044;-55
2021/06/03 06:35:32;;;;;;;10.02;2.00;;;;;;;;;;5042066;28;20056;-55
2021/06/03 06:37:58;;;;;;;7.97;1.92;;;;;;;;;;5025364;28;20075;-56
2021/06/03 06:40:25;;;;;;;7.22;1.90;;;;;;;;;;5040510;28;20119;-56
2021/06/03 06:42:54;;;;;;;11.50;2.20;;;;;;;;;;5040687;28;20029;-56
2021/06/03 06:45:29;;;;;;;10.00;1.98;;;;;;;;;;5041767;28;20461;-56
2021/06/03 06:47:55;;;;;;;9.77;1.88;;;;;;;;;;5042548;28;20077;-56
2021/06/03 06:50:22;;;;;;;9.38;2.15;;;;;;;;;;5040952;28;20094;-56
2021/06/03 06:52:48;;;;;;;13.15;2.25;;;;;;;;;;5043843;28;20032;-56
2021/06/03 06:55:14;;;;;;;9.93;1.80;;;;;;;;;;5041077;28;20047;-57
2021/06/03 06:57:40;;;;;;;7.00;1.95;;;;;;;;;;5041396;28;20049;-55
2021/06/03 07:00:08;;;;;;;7.07;2.03;;;;;;;;;;5042206;28;20036;-55
2021/06/03 07:02:34;;;;;;;7.13;2.08;;;;;;;;;;5043736;28;20040;-56
2021/06/03 07:05:00;;;;;;;6.50;1.92;;;;;;;;;;5043068;28;20052;-56
2021/06/03 07:07:26;;;;;;;8.13;1.70;;;;;;;;;;5042885;28;22480;-55
2021/06/03 07:09:52;;;;;;;4.30;1.80;;;;;;;;;;5043064;28;20043;-56
2021/06/03 07:12:18;;;;;;;7.57;1.98;;;;;;;;;;5042000;28;20033;-56
2021/06/03 07:15:05;;;;;;;7.85;1.63;;;;;;;;;;5008206;28;20859;-57
2021/06/03 07:17:31;;;;;;;8.00;1.60;;;;;;;;;;5008186;28;20128;-56
2021/06/03 07:19:57;;;;;;;12.05;2.15;;;;;;;;;;5007856;28;20045;-56
2021/06/03 07:22:22;;;;;;;8.15;1.85;;;;;;;;;;5006211;28;20049;-56
2021/06/03 07:24:48;;;;;;;7.75;2.00;;;;;;;;;;5007631;28;20050;-56
2021/06/03 07:27:14;;;;;;;10.30;1.80;;;;;;;;;;5007045;28;20037;-56
2021/06/03 07:29:41;;;;;;;10.88;2.13;;;;;;;;;;5007949;28;20049;-56
2021/06/03 07:32:07;;;;;;;13.93;2.13;;;;;;;;;;5008298;28;20049;-56
2021/06/03 07:34:33;;;;;;;8.00;1.80;;;;;;;;;;5005933;28;20091;-55
2021/06/03 07:36:59;;;;;;;11.93;2.20;;;;;;;;;;5008141;28;20060;-57
2021/06/03 07:39:25;;;;;;;8.32;1.80;;;;;;;;;;5006629;28;20143;-56
2021/06/03 07:41:51;;;;;;;12.15;2.10;;;;;;;;;;5008583;28;20088;-55
2021/06/03 07:44:17;;;;;;;12.23;2.30;;;;;;;;;;5009154;28;20038;-57
2021/06/03 07:46:43;;;;;;;11.73;2.22;;;;;;;;;;5036510;28;20064;-56
2021/06/03 07:49:13;;;;;;;13.63;2.35;;;;;;;;;;5043736;28;20032;-56
2021/06/03 07:51:39;;;;;;;15.65;2.20;;;;;;;;;;5043659;28;20047;-57
2021/06/03 07:54:05;;;;;;;9.60;2.10;;;;;;;;;;5043522;28;20098;-56
2021/06/03 07:56:31;;;;;;;7.78;2.00;;;;;;;;;;5043637;28;20072;-53
2021/06/03 07:58:57;;;;;;;7.78;2.17;;;;;;;;;;5042366;28;20138;-54
2021/06/03 08:01:22;;;;;;;8.15;1.90;;;;;;;;;;5043031;28;20161;-54
2021/06/03 08:03:48;;;;;;;10.95;2.30;;;;;;;;;;5042560;28;20094;-57
2021/06/03 08:06:14;;;;;;;11.30;2.22;;;;;;;;;;5042539;28;20060;-57
2021/06/03 08:08:40;;;;;;;12.07;2.47;;;;;;;;;;5041361;28;20128;-56
2021/06/03 08:11:06;;;;;;;8.93;2.30;;;;;;;;;;5040330;28;20129;-55
2021/06/03 08:13:32;;;;;;;10.02;2.40;;;;;;;;;;5040729;28;20439;-56
2021/06/03 08:15:58;;;;;;;12.52;3.00;;;;;;;;;;5041337;28;20063;-56
2021/06/03 08:18:24;;;;;;;7.72;2.15;;;;;;;;;;5041544;28;20758;-56
2021/06/03 08:20:52;;;;;;;8.38;2.22;;;;;;;;;;5041198;28;20037;-57
2021/06/03 08:23:19;;;;;;;11.35;2.47;;;;;;;;;;5039868;28;20459;-57
2021/06/03 08:25:46;;;;;;;10.82;2.30;;;;;;;;;;5040581;28;20036;-56
2021/06/03 08:28:12;;;;;;;9.60;1.90;;;;;;;;;;5042994;28;20041;-56
2021/06/03 08:30:39;;;;;;;9.48;1.80;;;;;;;;;;5037585;28;20067;-56
2021/06/03 08:33:06;;;;;;;7.75;1.83;;;;;;;;;;5042181;28;20087;-56
2021/06/03 08:35:32;;;;;;;9.13;2.17;;;;;;;;;;5038073;28;20063;-56
2021/06/03 08:37:58;;;;;;;8.48;2.00;;;;;;;;;;5040673;28;20171;-56
2021/06/03 08:40:26;;;;;;;12.65;2.25;;;;;;;;;;5040327;28;20044;-56
2021/06/03 08:42:52;;;;;;;10.05;2.20;;;;;;;;;;5041448;28;20044;-56
2021/06/03 08:45:19;;;;;;;10.40;2.60;;;;;;;;;;5039502;28;20039;-56
2021/06/03 08:47:44;;;;;;;8.50;2.03;;;;;;;;;;5040372;28;20041;-56
2021/06/03 08:50:11;;;;;;;8.15;2.08;;;;;;;;;;5041235;28;20560;-55
2021/06/03 08:52:37;;;;;;;8.82;2.45;;;;;;;;;;5040477;28;20045;-56
2021/06/03 08:55:07;;;;;;;13.20;3.30;;;;;;;;;;5043228;28;20120;-56
2021/06/03 08:57:33;;;;;;;7.32;2.42;;;;;;;;;;5044734;28;20073;-54
2021/06/03 09:00:00;;;;;;;8.32;2.30;;;;;;;;;;5040843;28;20741;-53
2021/06/03 09:02:28;;;;;;;9.65;2.47;;;;;;;;;;5039301;28;20036;-55
2021/06/03 09:04:53;;;;;;;8.95;2.47;;;;;;;;;;5043891;28;20156;-55
2021/06/03 09:07:33;;;;;;;6.05;2.03;;;;;;;;;;5043026;28;20762;-55
2021/06/03 09:10:17;;;;;;;9.48;2.10;;;;;;;;;;5042981;28;20047;-54
2021/06/03 09:12:58;;;;;;;7.15;2.05;;;;;;;;;;5044407;28;20037;-54
2021/06/03 09:15:24;;;;;;;10.82;2.25;;;;;;;;;;5044095;28;20764;-54
2021/06/03 09:17:50;;;;;;;6.18;2.10;;;;;;;;;;5046008;28;20091;-55
2021/06/03 09:20:22;;;;;;;10.88;2.40;;;;;;;;;;5045174;28;20045;-55
2021/06/03 09:22:48;;;;;;;9.73;2.38;;;;;;;;;;5044412;28;20689;-57
2021/06/03 09:25:33;;;;;;;11.48;2.45;;;;;;;;;;5043708;28;20051;-57
2021/06/03 09:28:17;;;;;;;6.75;2.28;;;;;;;;;;5045088;28;20052;-57
2021/06/03 09:30:50;;;;;;;9.27;2.20;;;;;;;;;;5043743;28;20044;-55
2021/06/03 09:33:16;;;;;;;6.95;2.13;;;;;;;;;;5048701;28;20040;-56
2021/06/03 09:35:54;;;;;;;7.75;2.20;;;;;;;;;;5044236;28;20045;-56
2021/06/03 09:38:20;;;;;;;10.13;2.20;;;;;;;;;;5045507;28;20044;-57
2021/06/03 09:40:50;;;;;;;7.57;2.00;;;;;;;;;;5047453;28;20041;-56
2021/06/03 09:43:20;;;;;;;13.85;2.38;;;;;;;;;;5047297;28;20572;-56
2021/06/03 09:45:53;;;;;;;8.35;2.20;;;;;;;;;;5048349;28;20041;-56
2021/06/03 09:48:34;;;;;;;11.20;2.40;;;;;;;;;;5050968;28;20039;-56
2021/06/03 09:51:18;;;;;;;10.02;2.72;;;;;;;;;;5051107;28;20589;-56
2021/06/03 09:54:03;;;;;;;10.65;2.20;;;;;;;;;;5057492;28;20053;-56
2021/06/03 09:56:38;;;;;;;12.35;2.65;;;;;;;;;;5054989;28;20041;-56
2021/06/03 09:59:07;;;;;;;10.63;2.53;;;;;;;;;;5053986;28;20047;-55
2021/06/03 10:01:40;;;;;;;9.93;2.47;;;;;;;;;;5047286;28;20037;-57
2021/06/03 10:04:05;;;;;;;;;;;;;;;;;;5047211;28;20045;-57
2021/06/03 10:06:31;;;;;;;12.43;2.53;;;;;;;;;;5045051;28;19967;-56
2021/06/03 10:08:57;;;;;;;8.30;2.20;;;;;;;;;;5044648;28;20040;-57
2021/06/03 10:11:41;;;;;;;7.85;2.50;;;;;;;;;;5043450;28;20655;-57
2021/06/03 10:14:08;;;;;;;13.68;5.43;;;;;;;;;;5045447;28;20127;-55
2021/06/03 10:16:34;;;;;;;12.35;5.32;;;;;;;;;;5043109;28;20053;-57
2021/06/03 10:19:16;;;;;;;8.93;2.90;;;;;;;;;;5045563;28;20041;-57
2021/06/03 10:21:42;;;;;;;13.33;2.57;;;;;;;;;;5046480;28;20033;-55
2021/06/03 10:24:08;;;;;;;7.97;1.92;;;;;;;;;;5046186;28;20064;-56
2021/06/03 10:26:54;;;;;;;10.60;2.30;;;;;;;;;;5043966;28;20082;-55
2021/06/03 10:29:20;;;;;;;8.63;2.47;;;;;;;;;;5042797;28;20049;-55
2021/06/03 10:31:46;;;;;;;11.27;2.40;;;;;;;;;;5045299;28;20417;-56
2021/06/03 10:34:12;;;;;;;11.40;2.20;;;;;;;;;;5044099;28;20048;-57
2021/06/03 10:36:38;;;;;;;17.77;2.00;;;;;;;;;;5043903;28;20604;-55
2021/06/03 10:39:04;;;;;;;11.60;2.30;;;;;;;;;;5043260;28;20156;-57
2021/06/03 10:41:29;;;;;;;10.25;2.08;;;;;;;;;;5043349;28;20029;-56
2021/06/03 10:43:55;;;;;;;11.07;2.00;;;;;;;;;;5044543;28;20045;-55
2021/06/03 10:46:21;;;;;;;10.07;2.17;;;;;;;;;;5044322;28;20033;-57
2021/06/03 10:48:47;;;;;;;14.02;2.22;;;;;;;;;;5044105;28;20087;-56
2021/06/03 10:51:14;;;;;;;16.08;2.28;;;;;;;;;;5044609;28;20045;-56
2021/06/03 10:53:44;;;;;;;13.25;2.08;;;;;;;;;;5043655;28;20043;-56
2021/06/03 10:56:12;;;;;;;8.82;1.98;;;;;;;;;;5043902;28;20033;-57
2021/06/03 10:58:39;;;;;;;12.20;2.00;;;;;;;;;;5044573;28;20037;-55
2021/06/03 11:01:06;;;;;;;14.52;2.28;;;;;;;;;;5043844;28;20056;-57
2021/06/03 11:03:54;;;;;;;10.63;2.42;;;;;;;;;;5043231;28;20417;-56
2021/06/03 11:06:24;;;;;;;14.55;2.05;;;;;;;;;;5042258;28;20048;-56
2021/06/03 11:08:56;;;;;;;8.18;2.30;;;;;;;;;;5044777;28;20580;-56
2021/06/03 11:11:22;;;;;;;11.02;3.20;;;;;;;;;;5043212;28;20045;-56
2021/06/03 11:13:47;;;;;;;14.43;3.92;;;;;;;;;;5045819;28;20041;-57
2021/06/03 11:16:20;;;;;;;21.35;3.20;;;;;;;;;;5044936;28;20106;-57
2021/06/03 11:18:46;;;;;;;12.83;3.00;;;;;;;;;;5041983;28;20190;-57
2021/06/03 11:21:30;;;;;;;16.23;2.83;;;;;;;;;;5043373;28;20341;-57
2021/06/03 11:23:56;;;;;;;11.57;2.88;;;;;;;;;;5042767;28;20082;-57
2021/06/03 11:26:37;;;;;;;21.88;3.13;;;;;;;;;;5043204;28;20467;-57
2021/06/03 11:29:22;;;;;;;10.57;2.50;;;;;;;;;;5042809;28;20033;-55
2021/06/03 11:31:50;;;;;;;16.38;2.90;;;;;;;;;;5043721;28;20493;-57
2021/06/03 11:34:21;;;;;;;19.90;2.80;;;;;;;;;;5041826;28;20146;-57
2021/06/03 11:37:00;;;;;;;12.48;2.38;;;;;;;;;;5042304;28;20498;-56
2021/06/03 11:39:32;;;;;;;9.98;2.60;;;;;;;;;;5027538;28;20049;-56
2021/06/03 11:42:17;;;;;;;10.13;2.65;;;;;;;;;;5044032;28;20041;-56
2021/06/03 11:45:01;;;;;;;15.50;3.28;;;;;;;;;;5043388;28;20037;-56
2021/06/03 11:47:27;;;;;;;18.65;3.80;;;;;;;;;;5042246;28;20033;-57
2021/06/03 11:49:53;;;;;;;14.48;3.00;;;;;;;;;;5042989;28;20045;-57
2021/06/03 11:52:20;;;;;;;12.55;3.70;;;;;;;;;;5042433;28;20041;-56
2021/06/03 11:55:12;;;;;;;12.40;3.13;;;;;;;;;;5042598;28;20427;-56
2021/06/03 11:57:38;;;;;;;11.02;3.55;;;;;;;;;;5038692;28;20058;-57
2021/06/03 12:00:04;;;;;;;15.27;3.42;;;;;;;;;;5044422;28;20043;-57
2021/06/03 12:02:43;;;;;;;15.93;3.03;;;;;;;;;;5042073;28;20045;-57
2021/06/03 12:05:11;;;;;;;14.05;3.25;;;;;;;;;;5043441;28;20049;-56
2021/06/03 12:07:40;;;;;;;17.40;2.72;;;;;;;;;;5043897;28;20048;-56
2021/06/03 12:10:07;;;;;;;18.92;3.22;;;;;;;;;;5042896;28;20049;-54
2021/06/03 12:12:32;;;;;;;13.43;3.42;;;;;;;;;;5043122;28;20036;-54
2021/06/03 12:14:58;;;;;;;16.00;2.85;;;;;;;;;;5044306;28;20055;-56
2021/06/03 12:17:24;;;;;;;13.15;2.75;;;;;;;;;;5043056;28;20059;-56
2021/06/03 12:19:53;;;;;;;17.30;4.32;;;;;;;;;;5044949;28;20108;-56
2021/06/03 12:22:21;;;;;;;10.95;3.42;;;;;;;;;;5041210;28;20049;-57
2021/06/03 12:24:47;;;;;;;14.88;3.63;;;;;;;;;;5042463;28;20040;-58
2021/06/03 12:27:20;;;;;;;11.50;3.75;;;;;;;;;;5044172;28;20049;-57
2021/06/03 12:29:46;;;;;;;22.60;4.57;;;;;;;;;;5045575;28;20059;-56
2021/06/03 12:32:13;;;;;;;12.05;3.65;;;;;;;;;;5047489;28;20536;-58
2021/06/03 12:34:39;;;;;;;11.60;3.50;;;;;;;;;;5047792;28;20534;-57
2021/06/03 12:37:22;;;;;;;15.07;3.53;;;;;;;;;;5048398;28;20062;-57
2021/06/03 12:39:48;;;;;;;12.90;3.03;;;;;;;;;;5048789;28;20710;-58
2021/06/03 12:42:17;;;;;;;11.63;3.00;;;;;;;;;;5048076;28;20037;-57
2021/06/03 12:44:52;;;;;;;13.38;2.90;;;;;;;;;;5045626;28;20045;-57
2021/06/03 12:47:18;;;;;;;16.55;3.65;;;;;;;;;;5045256;28;20040;-57
2021/06/03 12:49:43;;;;;;;15.27;3.28;;;;;;;;;;5046585;28;20040;-56
2021/06/03 12:52:10;;;;;;;13.82;2.92;;;;;;;;;;5047259;28;20498;-57
2021/06/03 12:54:38;;;;;;;18.52;3.28;;;;;;;;;;5047151;28;20036;-55
2021/06/03 12:57:14;;;;;;;19.45;3.80;;;;;;;;;;5046457;28;20789;-57
2021/06/03 12:59:41;;;;;;;8.77;3.10;;;;;;;;;;5046860;28;20858;-57
2021/06/03 13:02:08;;;;;;;16.95;3.60;;;;;;;;;;5048431;28;20128;-56
2021/06/03 13:04:43;;;;;;;20.02;3.53;;;;;;;;;;5043363;28;20492;-58
2021/06/03 13:07:10;;;;;;;19.38;3.58;;;;;;;;;;5044590;28;20711;-58
2021/06/03 13:09:38;;;;;;;20.20;3.30;;;;;;;;;;5046705;28;21176;-57
2021/06/03 13:12:06;;;;;;;30.55;3.72;;;;;;;;;;5045523;28;20457;-58
2021/06/03 13:14:40;;;;;;;16.42;3.05;;;;;;;;;;5044446;28;20087;-58
2021/06/03 13:17:08;;;;;;;12.20;3.03;;;;;;;;;;5048167;28;20063;-58
2021/06/03 13:19:34;;;;;;;15.90;3.17;;;;;;;;;;5044720;28;20110;-58
2021/06/03 13:22:01;;;;;;;11.57;3.10;;;;;;;;;;5046828;28;20635;-58
2021/06/03 13:24:31;;;;;;;18.20;3.97;;;;;;;;;;5045993;28;20041;-58
2021/06/03 13:26:58;;;;;;;15.23;2.78;;;;;;;;;;5045579;28;20481;-59
2021/06/03 13:29:25;;;;;;;14.05;2.90;;;;;;;;;;5045809;28;20054;-57
2021/06/03 13:31:56;;;;;;;13.23;2.97;;;;;;;;;;5043014;28;20040;-57
2021/06/03 13:34:28;;;;;;;12.23;3.13;;;;;;;;;;5042311;28;20048;-58
2021/06/03 13:37:02;;;;;;;20.40;3.47;;;;;;;;;;5046001;28;20056;-58
2021/06/03 13:39:29;;;;;;;9.57;2.55;;;;;;;;;;5044131;28;20048;-58
2021/06/03 13:41:56;;;;;;;8.15;2.38;;;;;;;;;;5047032;28;20040;-58
2021/06/03 13:44:23;;;;;;;15.85;3.00;;;;;;;;;;5048414;28;20099;-59
2021/06/03 13:46:49;;;;;;;15.57;3.13;;;;;;;;;;5046000;28;20036;-58
2021/06/03 13:49:32;;;;;;;13.50;2.72;;;;;;;;;;5043059;28;20392;-57
2021/06/03 13:52:02;;;;;;;15.35;2.70;;;;;;;;;;5043075;28;20148;-55
2021/06/03 13:54:28;;;;;;;13.73;3.00;;;;;;;;;;5042162;28;20044;-56
2021/06/03 13:56:54;;;;;;;13.18;3.53;;;;;;;;;;5044770;28;20420;-58
2021/06/03 13:59:20;;;;;;;9.10;2.78;;;;;;;;;;5043602;28;20788;-57
2021/06/03 14:01:47;;;;;;;11.43;2.67;;;;;;;;;;5042651;28;20041;-56
2021/06/03 14:04:20;;;;;;;10.45;2.83;;;;;;;;;;5044364;28;20041;-56
2021/06/03 14:06:48;;;;;;;14.30;2.65;;;;;;;;;;5044925;28;20037;-57
2021/06/03 14:09:17;;;;;;;18.25;3.25;;;;;;;;;;5044714;28;20044;-56
2021/06/03 14:12:07;;;;;;;18.55;3.75;;;;;;;;;;5046420;28;20059;-56
2021/06/03 14:14:37;;;;;;;21.73;3.50;;;;;;;;;;5045797;28;20045;-56
2021/06/03 14:17:03;;;;;;;20.63;3.28;;;;;;;;;;5045542;28;20136;-56
2021/06/03 14:19:40;;;;;;;18.20;3.40;;;;;;;;;;5045339;28;20108;-56
2021/06/03 14:22:20;;;;;;;19.50;3.00;;;;;;;;;;5044780;28;20276;-56
2021/06/03 14:24:56;;;;;;;16.65;3.13;;;;;;;;;;5043942;28;20045;-56
2021/06/03 14:27:37;;;;;;;20.27;2.95;;;;;;;;;;5043121;28;20032;-56
2021/06/03 14:30:06;;;;;;;13.63;2.90;;;;;;;;;;5044844;28;20044;-55
2021/06/03 14:32:39;;;;;;;17.73;3.80;;;;;;;;;;5044412;28;20068;-55
2021/06/03 14:35:11;;;;;;;17.25;3.30;;;;;;;;;;5045608;28;20075;-55
2021/06/03 14:37:38;;;;;;;29.50;3.43;;;;;;;;;;5045098;28;20064;-56
2021/06/03 14:40:05;;;;;;;14.23;3.00;;;;;;;;;;5050433;28;20190;-56
2021/06/03 14:42:41;;;;;;;20.77;3.92;;;;;;;;;;5045006;28;20044;-55
2021/06/03 14:45:12;;;;;;;17.33;3.20;;;;;;;;;;5044179;28;20049;-56